Time;durP1;ratioP1;P1;durP2;ratioP2;P2;SDS_P1;SDS_P2;PMS_P1;PMS_P2;Temp;Humidity;BMP_temperature;BMP_pressure;BME280_temperature;BME280_humidity;BME280_pressure;Samples;Min_cycle;Max_cycle;Signal;HPM_P1;HPM_P2
2022/01/02 13:00:11;;;;;;;;;;;;;;;15.19;68.23;99753.84;6280533;22;19903;-96
2022/01/02 13:02:37;;;;;;;;;;;;;;;15.33;67.52;99749.03;6294048;22;19963;-94
2022/01/02 13:05:03;;;;;;;;;;;;;;;15.54;66.56;99760.13;6305409;22;19957;-95
2022/01/02 13:07:31;;;;;;;;;;;;;;;15.70;65.97;99755.94;6305241;22;19967;-95
2022/01/02 13:12:37;;;;;;;;;;;;;;;15.32;66.23;99742.88;6267194;22;19904;-96
2022/01/02 13:17:53;;;;;;;;;;;;;;;15.53;66.48;99734.66;6297634;22;19947;-96
2022/01/02 13:20:23;;;;;;;;;;;;;;;15.36;67.42;99738.94;6277479;22;19911;-93
2022/01/02 13:22:52;;;;;;;;;;;;;;;15.33;67.04;99741.91;6306030;22;20027;-95
2022/01/02 13:25:22;;;;;;;;;;;;;;;14.77;68.72;99743.81;6304896;22;19900;-94
2022/01/02 13:28:07;;;;;;;;;;;;;;;15.09;68.15;99734.59;6305310;22;19938;-95
2022/01/02 13:30:37;;;;;;;;;;;;;;;15.26;68.10;99730.28;6304715;22;19935;-96
2022/01/02 13:33:03;;;;;;;;;;;;;;;15.26;68.33;99736.41;6305508;22;19906;-95
2022/01/02 13:40:30;;;;;;;;;;;;;;;15.44;67.09;99717.88;6290126;22;19917;-95
2022/01/02 18:55:30;;;;;;;26.52;3.47;;;;;;;13.98;64.24;99993.19;5097506;27;20454;-94
2022/01/02 19:00:31;;;;;;;11.00;2.13;;;;;;;14.20;63.15;99984.16;5657892;23;20029;-95
2022/01/02 19:02:57;;;;;;;24.25;3.15;;;;;;;13.66;64.73;99982.81;5161873;23;20035;-96
2022/01/02 19:05:23;;;;;;;11.93;2.42;;;;;;;13.93;63.94;99991.91;5041233;28;20046;-93
2022/01/02 19:07:49;;;;;;;29.13;3.35;;;;;;;13.61;64.12;99980.56;5041065;28;20036;-96
2022/01/02 19:10:15;;;;;;;19.40;3.03;;;;;;;13.71;64.41;100000.88;5035943;28;20034;-93
2022/01/02 19:15:17;;;;;;;21.20;3.78;;;;;;;13.55;63.97;99983.75;5660466;23;20057;-96
2022/01/02 19:17:52;;;;;;;25.77;3.38;;;;;;;13.33;65.66;100005.88;5178522;23;20073;-96
2022/01/02 19:30:38;;;;;;;27.00;2.90;;;;;;;13.61;65.09;100016.69;6132578;23;20441;-96
2022/01/02 19:45:56;;;;;;;22.33;4.03;;;;;;;13.73;64.86;100014.78;5651332;23;20033;-96
2022/01/02 19:48:22;;;;;;;24.73;3.90;;;;;;;13.76;65.08;100020.59;5043043;28;20132;-96
2022/01/02 19:50:47;;;;;;;23.55;3.90;;;;;;;13.65;65.00;100024.19;5040593;28;20037;-95
2022/01/02 19:53:13;;;;;;;28.75;3.65;;;;;;;13.94;64.96;100046.34;5036560;28;20056;-94
2022/01/02 19:55:39;;;;;;;25.20;3.00;;;;;;;13.88;64.91;100038.03;5036491;28;20018;-94
2022/01/02 19:58:04;;;;;;;19.13;3.22;;;;;;;13.74;64.81;100040.19;5038567;28;20092;-96
2022/01/02 20:00:30;;;;;;;21.42;3.60;;;;;;;13.46;65.91;100048.66;5036866;28;20029;-96
2022/01/02 20:02:57;;;;;;;17.85;3.33;;;;;;;13.59;66.04;100045.00;5042010;28;20048;-96
2022/01/02 20:05:25;;;;;;;20.75;3.20;;;;;;;13.72;65.10;100042.94;5022136;28;20030;-95
2022/01/02 20:07:51;;;;;;;26.95;3.42;;;;;;;12.88;67.52;100035.97;5006128;28;20054;-95
2022/01/02 20:10:16;;;;;;;19.63;3.58;;;;;;;13.37;66.64;100041.56;5019530;28;20033;-96
2022/01/02 20:12:42;;;;;;;32.58;4.82;;;;;;;13.60;65.75;100041.38;5021551;28;20196;-95
2022/01/02 20:15:11;;;;;;;23.05;3.53;;;;;;;13.58;65.57;100038.03;5204647;23;20050;-93
2022/01/02 20:17:38;;;;;;;18.02;3.50;;;;;;;13.48;66.75;100041.47;5003623;28;20086;-96
2022/01/02 20:20:06;;;;;;;20.10;4.05;;;;;;;13.59;65.82;100022.09;5002881;28;20140;-96
2022/01/02 20:22:31;;;;;;;23.17;4.20;;;;;;;13.48;66.22;100036.19;4995899;28;20031;-96
2022/01/02 20:24:57;;;;;;;25.83;3.70;;;;;;;13.43;66.59;100043.66;4994918;28;20089;-92
2022/01/02 20:27:22;;;;;;;23.65;4.03;;;;;;;13.44;65.82;100032.13;4996023;28;20056;-94
2022/01/02 20:29:49;;;;;;;26.73;3.60;;;;;;;13.64;65.51;100037.50;4992001;28;20026;-93
2022/01/02 20:32:16;;;;;;;22.45;4.53;;;;;;;13.56;65.56;100038.16;4995293;28;20038;-94
2022/01/02 20:34:41;;;;;;;17.35;2.92;;;;;;;13.57;65.66;100041.66;4995465;28;20041;-94
2022/01/02 20:37:06;;;;;;;26.55;4.38;;;;;;;13.41;66.98;100056.16;4996159;28;20035;-95
2022/01/02 20:39:32;;;;;;;30.48;4.15;;;;;;;13.54;65.97;100042.75;4987970;28;20105;-96
2022/01/02 20:41:57;;;;;;;18.88;4.38;;;;;;;13.63;66.23;100049.88;4977154;28;20022;-95
2022/01/02 20:44:23;;;;;;;32.35;5.53;;;;;;;13.66;65.86;100048.75;4986333;28;20058;-96
2022/01/02 20:46:53;;;;;;;22.85;4.07;;;;;;;13.31;67.27;100046.50;4995555;28;20492;-96
2022/01/02 20:49:18;;;;;;;21.48;4.95;;;;;;;13.60;66.54;100055.41;4997609;28;20072;-96
2022/01/02 20:51:43;;;;;;;26.67;4.10;;;;;;;13.64;66.40;100050.69;4995565;28;20026;-95
2022/01/02 20:54:09;;;;;;;32.55;4.38;;;;;;;13.16;67.72;100059.16;4996656;28;20035;-94
2022/01/02 20:56:34;;;;;;;23.05;4.47;;;;;;;13.58;66.27;100049.41;4989314;28;20497;-95
2022/01/02 20:59:00;;;;;;;25.55;4.20;;;;;;;13.61;66.26;100050.97;4985300;28;20026;-96
2022/01/02 21:01:26;;;;;;;30.58;4.03;;;;;;;13.49;66.09;100063.41;4999457;28;20045;-95
2022/01/02 21:03:51;;;;;;;29.70;4.20;;;;;;;13.40;66.81;100059.75;4997465;28;20030;-95
2022/01/02 21:06:16;;;;;;;33.35;4.30;;;;;;;13.39;67.12;100071.28;4997892;28;20026;-95
2022/01/02 21:08:44;;;;;;;29.30;4.68;;;;;;;13.61;65.96;100062.34;4996907;28;20335;-94
2022/01/02 21:21:40;;;;;;;29.20;4.25;;;;;;;13.47;65.44;100058.25;5324938;23;20188;-93
2022/01/02 21:24:05;;;;;;;30.92;4.30;;;;;;;13.12;66.41;100070.94;5011647;28;20006;-96
2022/01/02 21:26:30;;;;;;;28.05;3.95;;;;;;;13.49;65.79;100080.06;5020452;28;20030;-93
2022/01/02 21:28:56;;;;;;;32.45;4.97;;;;;;;13.56;65.62;100080.38;5004883;28;20088;-95
2022/01/02 21:31:22;;;;;;;21.38;3.90;;;;;;;13.60;65.79;100075.66;5014691;28;20088;-95
2022/01/02 21:33:47;;;;;;;31.40;4.47;;;;;;;13.56;65.99;100080.38;5007507;28;20121;-96
2022/01/02 21:36:13;;;;;;;29.50;4.13;;;;;;;13.41;66.13;100073.78;5002090;28;20527;-95
2022/01/02 21:38:42;;;;;;;21.90;4.50;;;;;;;13.65;65.55;100069.03;4995940;28;20114;-95
2022/01/02 21:41:08;;;;;;;25.45;4.63;;;;;;;13.66;65.44;100069.88;4995827;28;20107;-95
2022/01/02 21:43:34;;;;;;;27.45;4.70;;;;;;;13.59;65.64;100052.91;5674164;23;20010;-96
2022/01/02 21:48:35;;;;;;;26.75;5.20;;;;;;;13.73;64.90;100055.19;5680598;23;21107;-96
2022/01/02 21:51:01;;;;;;;24.75;4.80;;;;;;;13.60;65.34;100062.47;5022410;28;20034;-95
2022/01/02 21:53:26;;;;;;;30.90;7.22;;;;;;;13.49;66.13;100053.69;5007692;28;20061;-96
